sensor_id;sensor_type;location;lat;lon;timestamp;pressure;altitude;pressure_sealevel;temperature;humidity
72959;BME280;60008;50.826;6.896;2022-10-13T00:01:26;101480.06;;;9.32;100.00
72959;BME280;60008;50.826;6.896;2022-10-13T00:04:11;101474.91;;;9.31;100.00
72959;BME280;60008;50.826;6.896;2022-10-13T00:06:56;101479.63;;;9.27;100.00
72959;BME280;60008;50.826;6.896;2022-10-13T00:09:41;101474.22;;;9.29;100.00
72959;BME280;60008;50.826;6.896;2022-10-13T00:12:26;101471.84;;;9.26;100.00
72959;BME280;60008;50.826;6.896;2022-10-13T00:15:11;101471.00;;;9.25;100.00
72959;BME280;60008;50.826;6.896;2022-10-13T00:17:56;101472.44;;;9.39;100.00
72959;BME280;60008;50.826;6.896;2022-10-13T00:20:43;101474.94;;;9.40;100.00
72959;BME280;60008;50.826;6.896;2022-10-13T00:23:29;101466.19;;;9.40;100.00
72959;BME280;60008;50.826;6.896;2022-10-13T00:26:15;101469.22;;;9.35;100.00
72959;BME280;60008;50.826;6.896;2022-10-13T00:29:00;101467.56;;;9.34;100.00
72959;BME280;60008;50.826;6.896;2022-10-13T00:31:45;101465.63;;;9.36;100.00
72959;BME280;60008;50.826;6.896;2022-10-13T00:34:30;101464.25;;;9.42;100.00
72959;BME280;60008;50.826;6.896;2022-10-13T00:37:15;101462.28;;;9.44;100.00
72959;BME280;60008;50.826;6.896;2022-10-13T00:40:00;101462.16;;;9.45;100.00
72959;BME280;60008;50.826;6.896;2022-10-13T00:42:45;101464.13;;;9.53;100.00
72959;BME280;60008;50.826;6.896;2022-10-13T00:45:30;101452.44;;;9.55;100.00
72959;BME280;60008;50.826;6.896;2022-10-13T00:48:26;101459.09;;;9.50;100.00
72959;BME280;60008;50.826;6.896;2022-10-13T00:51:15;101459.09;;;9.50;100.00
72959;BME280;60008;50.826;6.896;2022-10-13T00:54:02;101456.19;;;9.53;100.00
72959;BME280;60008;50.826;6.896;2022-10-13T00:56:50;101446.41;;;9.44;100.00
72959;BME280;60008;50.826;6.896;2022-10-13T00:59:36;101444.34;;;9.47;100.00
72959;BME280;60008;50.826;6.896;2022-10-13T01:02:23;101446.84;;;9.49;100.00
72959;BME280;60008;50.826;6.896;2022-10-13T01:05:11;101441.53;;;9.49;100.00
72959;BME280;60008;50.826;6.896;2022-10-13T01:07:56;101445.19;;;9.48;100.00
72959;BME280;60008;50.826;6.896;2022-10-13T01:11:05;101444.34;;;9.47;100.00
72959;BME280;60008;50.826;6.896;2022-10-13T01:14:17;101446.72;;;9.50;100.00
72959;BME280;60008;50.826;6.896;2022-10-13T01:17:14;101430.13;;;9.48;100.00
72959;BME280;60008;50.826;6.896;2022-10-13T01:20:21;101434.88;;;9.54;100.00
72959;BME280;60008;50.826;6.896;2022-10-13T01:23:29;101429.16;;;9.49;100.00
72959;BME280;60008;50.826;6.896;2022-10-13T01:35:40;101412.72;;;9.36;100.00
72959;BME280;60008;50.826;6.896;2022-10-13T01:38:34;101408.09;;;9.38;100.00
72959;BME280;60008;50.826;6.896;2022-10-13T01:41:44;101409.09;;;9.37;100.00
72959;BME280;60008;50.826;6.896;2022-10-13T01:44:35;101394.03;;;9.38;100.00
72959;BME280;60008;50.826;6.896;2022-10-13T01:47:22;101398.63;;;9.36;100.00
72959;BME280;60008;50.826;6.896;2022-10-13T01:50:08;101404.06;;;9.34;100.00
72959;BME280;60008;50.826;6.896;2022-10-13T01:52:54;101400.00;;;9.30;100.00
72959;BME280;60008;50.826;6.896;2022-10-13T01:55:55;101395.16;;;9.26;100.00
72959;BME280;60008;50.826;6.896;2022-10-13T01:58:41;101395.41;;;9.23;100.00
72959;BME280;60008;50.826;6.896;2022-10-13T02:01:31;101400.84;;;9.21;100.00
72959;BME280;60008;50.826;6.896;2022-10-13T02:04:33;101394.28;;;9.16;100.00
72959;BME280;60008;50.826;6.896;2022-10-13T02:07:43;101392.47;;;9.16;100.00
72959;BME280;60008;50.826;6.896;2022-10-13T02:13:34;101384.53;;;9.16;100.00
72959;BME280;60008;50.826;6.896;2022-10-13T02:16:21;101390.22;;;9.12;100.00
72959;BME280;60008;50.826;6.896;2022-10-13T02:19:10;101380.91;;;9.08;100.00
72959;BME280;60008;50.826;6.896;2022-10-13T02:21:57;101377.16;;;9.10;100.00
72959;BME280;60008;50.826;6.896;2022-10-13T02:24:42;101375.47;;;9.09;100.00
72959;BME280;60008;50.826;6.896;2022-10-13T02:27:27;101380.19;;;9.06;100.00
72959;BME280;60008;50.826;6.896;2022-10-13T02:30:23;101372.25;;;9.06;100.00
72959;BME280;60008;50.826;6.896;2022-10-13T02:33:10;101381.88;;;9.07;100.00
72959;BME280;60008;50.826;6.896;2022-10-13T02:35:55;101378.28;;;9.08;100.00
72959;BME280;60008;50.826;6.896;2022-10-13T02:38:40;101372.84;;;9.09;100.00
72959;BME280;60008;50.826;6.896;2022-10-13T02:41:26;101374.38;;;9.12;100.00
72959;BME280;60008;50.826;6.896;2022-10-13T02:44:11;101379.25;;;9.16;100.00
72959;BME280;60008;50.826;6.896;2022-10-13T02:46:56;101383.00;;;9.14;100.00
72959;BME280;60008;50.826;6.896;2022-10-13T02:49:41;101383.25;;;9.11;100.00
72959;BME280;60008;50.826;6.896;2022-10-13T02:52:26;101383.25;;;9.11;100.00
72959;BME280;60008;50.826;6.896;2022-10-13T02:55:11;101381.19;;;9.14;100.00
72959;BME280;60008;50.826;6.896;2022-10-13T02:57:56;101382.44;;;9.10;100.00
72959;BME280;60008;50.826;6.896;2022-10-13T03:00:41;101385.91;;;9.11;100.00
72959;BME280;60008;50.826;6.896;2022-10-13T03:03:26;101383.97;;;9.13;100.00
72959;BME280;60008;50.826;6.896;2022-10-13T03:06:11;101383.00;;;9.14;100.00
72959;BME280;60008;50.826;6.896;2022-10-13T03:08:57;101372.56;;;9.12;100.00
72959;BME280;60008;50.826;6.896;2022-10-13T03:11:41;101372.69;;;9.11;100.00
72959;BME280;60008;50.826;6.896;2022-10-13T03:14:26;101382.44;;;9.10;100.00
72959;BME280;60008;50.826;6.896;2022-10-13T03:17:11;101378.13;;;9.09;100.00
72959;BME280;60008;50.826;6.896;2022-10-13T03:19:57;101369.06;;;9.02;100.00
72959;BME280;60008;50.826;6.896;2022-10-13T03:22:42;101363.63;;;9.04;100.00
72959;BME280;60008;50.826;6.896;2022-10-13T03:25:34;101353.22;;;9.02;100.00
72959;BME280;60008;50.826;6.896;2022-10-13T03:28:19;101356.53;;;9.04;100.00
72959;BME280;60008;50.826;6.896;2022-10-13T03:31:06;101354.00;;;9.03;100.00
72959;BME280;60008;50.826;6.896;2022-10-13T03:33:52;101349.56;;;9.03;100.00
72959;BME280;60008;50.826;6.896;2022-10-13T03:36:38;101349.72;;;9.02;100.00
72959;BME280;60008;50.826;6.896;2022-10-13T03:39:23;101335.66;;;9.01;100.00
72959;BME280;60008;50.826;6.896;2022-10-13T03:42:09;101350.69;;;9.01;100.00
72959;BME280;60008;50.826;6.896;2022-10-13T03:44:54;101341.06;;;8.99;100.00
72959;BME280;60008;50.826;6.896;2022-10-13T03:47:40;101338.56;;;8.98;100.00
72959;BME280;60008;50.826;6.896;2022-10-13T03:50:25;101337.19;;;9.04;100.00
72959;BME280;60008;50.826;6.896;2022-10-13T03:53:11;101344.97;;;9.05;100.00
72959;BME280;60008;50.826;6.896;2022-10-13T03:55:56;101339.00;;;9.03;100.00
72959;BME280;60008;50.826;6.896;2022-10-13T03:58:41;101335.25;;;9.06;100.00
72959;BME280;60008;50.826;6.896;2022-10-13T04:01:28;101336.66;;;9.10;100.00
72959;BME280;60008;50.826;6.896;2022-10-13T04:04:14;101337.63;;;9.09;100.00
72959;BME280;60008;50.826;6.896;2022-10-13T04:07:00;101342.78;;;9.10;100.00
72959;BME280;60008;50.826;6.896;2022-10-13T04:09:45;101335.97;;;9.08;100.00
72959;BME280;60008;50.826;6.896;2022-10-13T04:12:30;101331.50;;;9.08;100.00
72959;BME280;60008;50.826;6.896;2022-10-13T04:15:15;101330.94;;;9.14;100.00
72959;BME280;60008;50.826;6.896;2022-10-13T04:18:00;101342.09;;;9.18;100.00
72959;BME280;60008;50.826;6.896;2022-10-13T04:20:45;101334.75;;;9.21;100.00
72959;BME280;60008;50.826;6.896;2022-10-13T04:23:30;101328.59;;;9.21;100.00
72959;BME280;60008;50.826;6.896;2022-10-13T04:26:18;101325.53;;;9.25;100.00
72959;BME280;60008;50.826;6.896;2022-10-13T04:29:04;101327.91;;;9.28;100.00
72959;BME280;60008;50.826;6.896;2022-10-13T04:31:49;101325.13;;;9.30;100.00
72959;BME280;60008;50.826;6.896;2022-10-13T04:34:34;101319.00;;;9.29;100.00
72959;BME280;60008;50.826;6.896;2022-10-13T04:37:19;101318.28;;;9.27;100.00
72959;BME280;60008;50.826;6.896;2022-10-13T04:40:05;101311.09;;;9.29;100.00
72959;BME280;60008;50.826;6.896;2022-10-13T04:42:50;101323.03;;;9.33;100.00
72959;BME280;60008;50.826;6.896;2022-10-13T04:45:35;101326.53;;;9.34;100.00
72959;BME280;60008;50.826;6.896;2022-10-13T04:48:20;101310.78;;;9.32;100.00
72959;BME280;60008;50.826;6.896;2022-10-13T04:51:10;101316.63;;;9.36;100.00
72959;BME280;60008;50.826;6.896;2022-10-13T04:53:57;101325.56;;;9.44;100.00
72959;BME280;60008;50.826;6.896;2022-10-13T04:56:44;101314.41;;;9.41;100.00
72959;BME280;60008;50.826;6.896;2022-10-13T04:59:29;101321.50;;;9.40;100.00
72959;BME280;60008;50.826;6.896;2022-10-13T05:02:14;101320.53;;;9.41;100.00
72959;BME280;60008;50.826;6.896;2022-10-13T05:04:59;101303.44;;;9.45;100.00
72959;BME280;60008;50.826;6.896;2022-10-13T05:07:44;101299.50;;;9.49;100.00
72959;BME280;60008;50.826;6.896;2022-10-13T05:10:30;101301.59;;;9.46;100.00
72959;BME280;60008;50.826;6.896;2022-10-13T05:13:18;101305.91;;;9.47;100.00
72959;BME280;60008;50.826;6.896;2022-10-13T05:16:10;101309.00;;;9.42;100.00
72959;BME280;60008;50.826;6.896;2022-10-13T05:18:56;101314.13;;;9.44;100.00
72959;BME280;60008;50.826;6.896;2022-10-13T05:21:42;101304.66;;;9.41;100.00
72959;BME280;60008;50.826;6.896;2022-10-13T05:24:30;101299.81;;;9.37;100.00
72959;BME280;60008;50.826;6.896;2022-10-13T05:27:20;101288.38;;;9.36;100.00
72959;BME280;60008;50.826;6.896;2022-10-13T05:30:07;101299.81;;;9.37;100.00
72959;BME280;60008;50.826;6.896;2022-10-13T05:32:52;101288.66;;;9.33;100.00
72959;BME280;60008;50.826;6.896;2022-10-13T05:35:37;101292.13;;;9.34;100.00
72959;BME280;60008;50.826;6.896;2022-10-13T05:38:22;101281.16;;;9.29;100.00
72959;BME280;60008;50.826;6.896;2022-10-13T05:41:12;101298.25;;;9.25;100.00
72959;BME280;60008;50.826;6.896;2022-10-13T05:44:01;101283.66;;;9.21;100.00
72959;BME280;60008;50.826;6.896;2022-10-13T05:46:47;101282.94;;;9.19;100.00
72959;BME280;60008;50.826;6.896;2022-10-13T05:49:31;101271.66;;;9.17;100.00
72959;BME280;60008;50.826;6.896;2022-10-13T05:52:17;101274.03;;;9.20;100.00
72959;BME280;60008;50.826;6.896;2022-10-13T05:55:04;101273.19;;;9.19;100.00
72959;BME280;60008;50.826;6.896;2022-10-13T05:57:51;101281.13;;;9.19;100.00
72959;BME280;60008;50.826;6.896;2022-10-13T06:00:37;101282.81;;;9.20;100.00
72959;BME280;60008;50.826;6.896;2022-10-13T06:03:23;101274.03;;;9.20;100.00
72959;BME280;60008;50.826;6.896;2022-10-13T06:06:09;101263.59;;;9.18;100.00
72959;BME280;60008;50.826;6.896;2022-10-13T06:08:54;101267.63;;;9.22;100.00
72959;BME280;60008;50.826;6.896;2022-10-13T06:11:39;101272.63;;;9.25;100.00
72959;BME280;60008;50.826;6.896;2022-10-13T06:14:24;101270.84;;;9.26;100.00
72959;BME280;60008;50.826;6.896;2022-10-13T06:17:09;101275.97;;;9.27;100.00
72959;BME280;60008;50.826;6.896;2022-10-13T06:19:54;101267.91;;;9.29;100.00
72959;BME280;60008;50.826;6.896;2022-10-13T06:22:39;101261.34;;;9.33;100.00
72959;BME280;60008;50.826;6.896;2022-10-13T06:25:24;101270.28;;;9.41;100.00
72959;BME280;60008;50.826;6.896;2022-10-13T06:28:09;101277.38;;;9.41;100.00
72959;BME280;60008;50.826;6.896;2022-10-13T06:30:57;101266.50;;;9.44;100.00
72959;BME280;60008;50.826;6.896;2022-10-13T06:33:42;101253.03;;;9.37;100.00
72959;BME280;60008;50.826;6.896;2022-10-13T06:36:27;101266.06;;;9.48;100.00
72959;BME280;60008;50.826;6.896;2022-10-13T06:39:12;101269.97;;;9.54;100.00
72959;BME280;60008;50.826;6.896;2022-10-13T06:41:57;101275.81;;;9.57;100.00
72959;BME280;60008;50.826;6.896;2022-10-13T06:44:42;101278.19;;;9.61;100.00
72959;BME280;60008;50.826;6.896;2022-10-13T06:47:26;101273.72;;;9.71;100.00
72959;BME280;60008;50.826;6.896;2022-10-13T06:50:12;101276.50;;;9.79;100.00
72959;BME280;60008;50.826;6.896;2022-10-13T06:52:57;101275.09;;;9.84;100.00
72959;BME280;60008;50.826;6.896;2022-10-13T06:55:42;101270.47;;;9.96;100.00
72959;BME280;60008;50.826;6.896;2022-10-13T06:58:27;101274.34;;;10.01;100.00
72959;BME280;60008;50.826;6.896;2022-10-13T07:01:12;101271.41;;;10.14;100.00
72959;BME280;60008;50.826;6.896;2022-10-13T07:03:58;101275.28;;;10.20;100.00
72959;BME280;60008;50.826;6.896;2022-10-13T07:06:44;101276.13;;;10.20;100.00
72959;BME280;60008;50.826;6.896;2022-10-13T07:09:30;101275.44;;;10.18;100.00
72959;BME280;60008;50.826;6.896;2022-10-13T07:12:15;101281.00;;;10.25;100.00
72959;BME280;60008;50.826;6.896;2022-10-13T07:15:00;101272.13;;;10.16;100.00
72959;BME280;60008;50.826;6.896;2022-10-13T07:17:45;101272.25;;;10.14;100.00
72959;BME280;60008;50.826;6.896;2022-10-13T07:20:30;101270.09;;;10.37;100.00
72959;BME280;60008;50.826;6.896;2022-10-13T07:23:15;101262.91;;;10.47;100.00
72959;BME280;60008;50.826;6.896;2022-10-13T07:26:00;101266.66;;;10.54;100.00
72959;BME280;60008;50.826;6.896;2022-10-13T07:28:46;101278.16;;;10.63;100.00
72959;BME280;60008;50.826;6.896;2022-10-13T07:31:30;101275.31;;;10.74;100.00
72959;BME280;60008;50.826;6.896;2022-10-13T07:34:16;101279.34;;;10.78;100.00
72959;BME280;60008;50.826;6.896;2022-10-13T07:37:01;101272.25;;;10.96;100.00
72959;BME280;60008;50.826;6.896;2022-10-13T07:39:46;101276.97;;;11.02;100.00
72959;BME280;60008;50.826;6.896;2022-10-13T07:42:31;101266.34;;;11.20;100.00
72959;BME280;60008;50.826;6.896;2022-10-13T07:45:16;101256.56;;;11.38;100.00
72959;BME280;60008;50.826;6.896;2022-10-13T07:48:02;101246.81;;;11.39;100.00
72959;BME280;60008;50.826;6.896;2022-10-13T07:50:47;101249.72;;;11.53;100.00
72959;BME280;60008;50.826;6.896;2022-10-13T07:53:32;101247.13;;;11.61;100.00
72959;BME280;60008;50.826;6.896;2022-10-13T07:56:18;101254.22;;;11.70;100.00
72959;BME280;60008;50.826;6.896;2022-10-13T07:59:04;101270.88;;;11.80;100.00
72959;BME280;60008;50.826;6.896;2022-10-13T08:01:49;101269.00;;;11.73;100.00
72959;BME280;60008;50.826;6.896;2022-10-13T08:04:34;101274.31;;;11.73;100.00
72959;BME280;60008;50.826;6.896;2022-10-13T08:07:19;101284.41;;;11.69;100.00
72959;BME280;60008;50.826;6.896;2022-10-13T08:10:05;101275.66;;;11.77;100.00
72959;BME280;60008;50.826;6.896;2022-10-13T08:12:50;101275.03;;;11.83;100.00
72959;BME280;60008;50.826;6.896;2022-10-13T08:15:39;101264.56;;;11.64;100.00
72959;BME280;60008;50.826;6.896;2022-10-13T08:18:24;101270.50;;;11.75;100.00
72959;BME280;60008;50.826;6.896;2022-10-13T08:21:12;101268.69;;;12.02;100.00
72959;BME280;60008;50.826;6.896;2022-10-13T08:24:18;101272.84;;;12.04;100.00
72959;BME280;60008;50.826;6.896;2022-10-13T08:27:03;101271.81;;;12.23;99.89
72959;BME280;60008;50.826;6.896;2022-10-13T08:29:49;101274.38;;;12.40;100.00
72959;BME280;60008;50.826;6.896;2022-10-13T08:32:34;101270.22;;;12.38;99.89
72959;BME280;60008;50.826;6.896;2022-10-13T08:35:19;101270.84;;;12.74;99.23
72959;BME280;60008;50.826;6.896;2022-10-13T08:38:04;101269.28;;;12.47;99.80
72959;BME280;60008;50.826;6.896;2022-10-13T08:40:50;101259.00;;;12.60;100.00
72959;BME280;60008;50.826;6.896;2022-10-13T08:43:35;101260.00;;;12.59;99.41
72959;BME280;60008;50.826;6.896;2022-10-13T08:46:38;101259.25;;;12.41;100.00
72959;BME280;60008;50.826;6.896;2022-10-13T08:49:26;101254.59;;;12.77;99.38
72959;BME280;60008;50.826;6.896;2022-10-13T08:52:24;101251.25;;;12.83;97.90
72959;BME280;60008;50.826;6.896;2022-10-13T08:55:22;101247.06;;;12.72;97.77
72959;BME280;60008;50.826;6.896;2022-10-13T08:58:20;101251.31;;;12.99;97.95
72959;BME280;60008;50.826;6.896;2022-10-13T09:01:13;101248.97;;;12.96;97.15
72959;BME280;60008;50.826;6.896;2022-10-13T09:04:25;101242.97;;;12.94;96.53
72959;BME280;60008;50.826;6.896;2022-10-13T09:07:15;101248.16;;;13.03;96.81
72959;BME280;60008;50.826;6.896;2022-10-13T09:10:02;101250.78;;;12.95;96.78
72959;BME280;60008;50.826;6.896;2022-10-13T09:12:47;101247.97;;;12.97;96.71
72959;BME280;60008;50.826;6.896;2022-10-13T09:15:42;101248.34;;;13.10;97.02
72959;BME280;60008;50.826;6.896;2022-10-13T09:18:29;101244.56;;;13.21;97.02
72959;BME280;60008;50.826;6.896;2022-10-13T09:21:23;101245.03;;;13.48;95.32
72959;BME280;60008;50.826;6.896;2022-10-13T09:24:18;101243.22;;;13.57;94.31
72959;BME280;60008;50.826;6.896;2022-10-13T09:27:13;101245.38;;;13.69;94.96
72959;BME280;60008;50.826;6.896;2022-10-13T09:30:18;101245.50;;;13.92;92.72
72959;BME280;60008;50.826;6.896;2022-10-13T09:39:04;101232.47;;;13.97;92.64
72959;BME280;60008;50.826;6.896;2022-10-13T09:41:51;101234.97;;;14.07;92.01
72959;BME280;60008;50.826;6.896;2022-10-13T09:44:36;101238.13;;;14.02;93.65
72959;BME280;60008;50.826;6.896;2022-10-13T09:47:21;101228.31;;;14.03;93.00
72959;BME280;60008;50.826;6.896;2022-10-13T09:50:21;101237.59;;;14.23;92.21
72959;BME280;60008;50.826;6.896;2022-10-13T09:53:18;101226.41;;;14.36;91.77
72959;BME280;60008;50.826;6.896;2022-10-13T09:56:29;101226.41;;;14.36;91.65
72959;BME280;60008;50.826;6.896;2022-10-13T09:59:29;101228.72;;;14.30;92.96
72959;BME280;60008;50.826;6.896;2022-10-13T10:05:27;101215.66;;;14.05;94.44
72959;BME280;60008;50.826;6.896;2022-10-13T10:08:19;101212.78;;;14.14;94.54
72959;BME280;60008;50.826;6.896;2022-10-13T10:11:21;101208.00;;;14.49;93.99
72959;BME280;60008;50.826;6.896;2022-10-13T10:14:18;101210.34;;;14.44;92.77
72959;BME280;60008;50.826;6.896;2022-10-13T10:17:15;101211.28;;;14.59;93.34
72959;BME280;60008;50.826;6.896;2022-10-13T10:20:33;101211.56;;;14.72;90.83
72959;BME280;60008;50.826;6.896;2022-10-13T10:26:33;101184.88;;;16.93;81.79
72959;BME280;60008;50.826;6.896;2022-10-13T10:29:43;101182.31;;;17.06;80.73
72959;BME280;60008;50.826;6.896;2022-10-13T10:38:51;101186.19;;;16.46;83.07
72959;BME280;60008;50.826;6.896;2022-10-13T10:44:52;101177.66;;;15.78;85.46
72959;BME280;60008;50.826;6.896;2022-10-13T10:47:41;101172.56;;;15.68;86.33
72959;BME280;60008;50.826;6.896;2022-10-13T10:50:28;101169.63;;;15.78;86.64
72959;BME280;60008;50.826;6.896;2022-10-13T10:53:21;101154.78;;;16.04;86.18
72959;BME280;60008;50.826;6.896;2022-10-13T10:56:30;101159.75;;;15.93;85.08
72959;BME280;60008;50.826;6.896;2022-10-13T11:02:59;101157.09;;;16.07;85.58
72959;BME280;60008;50.826;6.896;2022-10-13T11:05:57;101167.47;;;16.17;83.25
72959;BME280;60008;50.826;6.896;2022-10-13T11:08:44;101158.06;;;16.36;82.79
72959;BME280;60008;50.826;6.896;2022-10-13T11:11:33;101155.97;;;16.52;82.37
72959;BME280;60008;50.826;6.896;2022-10-13T11:14:24;101153.81;;;16.41;79.63
72959;BME280;60008;50.826;6.896;2022-10-13T11:17:28;101152.66;;;16.50;77.91
72959;BME280;60008;50.826;6.896;2022-10-13T11:25:49;101152.06;;;16.34;78.97
72959;BME280;60008;50.826;6.896;2022-10-13T11:31:46;101140.31;;;16.14;80.20
72959;BME280;60008;50.826;6.896;2022-10-13T11:34:32;101146.50;;;16.14;81.85
72959;BME280;60008;50.826;6.896;2022-10-13T11:37:17;101146.59;;;16.06;81.90
72959;BME280;60008;50.826;6.896;2022-10-13T11:40:14;101145.75;;;16.05;82.91
72959;BME280;60008;50.826;6.896;2022-10-13T11:43:13;101137.72;;;15.91;84.50
72959;BME280;60008;50.826;6.896;2022-10-13T11:46:22;101138.84;;;15.82;84.91
72959;BME280;60008;50.826;6.896;2022-10-13T11:49:36;101131.94;;;15.73;85.58
72959;BME280;60008;50.826;6.896;2022-10-13T11:55:53;101120.78;;;15.69;86.34
72959;BME280;60008;50.826;6.896;2022-10-13T11:58:41;101119.13;;;15.83;85.55
72959;BME280;60008;50.826;6.896;2022-10-13T12:01:26;101125.34;;;16.19;84.27
72959;BME280;60008;50.826;6.896;2022-10-13T12:04:13;101123.00;;;16.31;85.54
72959;BME280;60008;50.826;6.896;2022-10-13T12:07:01;101118.38;;;16.39;85.42
72959;BME280;60008;50.826;6.896;2022-10-13T12:09:54;101116.88;;;16.01;85.38
72959;BME280;60008;50.826;6.896;2022-10-13T12:12:48;101111.34;;;16.02;83.69
72959;BME280;60008;50.826;6.896;2022-10-13T12:15:40;101115.13;;;15.93;84.27
72959;BME280;60008;50.826;6.896;2022-10-13T12:18:31;101102.34;;;15.74;86.66
72959;BME280;60008;50.826;6.896;2022-10-13T12:21:21;101105.13;;;15.66;86.23
72959;BME280;60008;50.826;6.896;2022-10-13T12:24:08;101097.19;;;15.73;85.74
72959;BME280;60008;50.826;6.896;2022-10-13T12:26:54;101099.41;;;15.84;83.68
72959;BME280;60008;50.826;6.896;2022-10-13T12:29:39;101101.81;;;15.79;87.41
72959;BME280;60008;50.826;6.896;2022-10-13T12:32:28;101100.03;;;15.86;85.95
72959;BME280;60008;50.826;6.896;2022-10-13T12:35:24;101093.50;;;15.88;84.77
72959;BME280;60008;50.826;6.896;2022-10-13T12:38:16;101094.94;;;16.05;84.57
72959;BME280;60008;50.826;6.896;2022-10-13T12:41:03;101097.34;;;16.00;83.79
72959;BME280;60008;50.826;6.896;2022-10-13T12:43:49;101096.81;;;15.90;85.07
72959;BME280;60008;50.826;6.896;2022-10-13T12:46:42;101097.19;;;15.73;84.86
72959;BME280;60008;50.826;6.896;2022-10-13T12:49:29;101089.06;;;15.66;83.59
72959;BME280;60008;50.826;6.896;2022-10-13T12:52:15;101090.28;;;15.64;85.13
72959;BME280;60008;50.826;6.896;2022-10-13T12:55:12;101086.59;;;15.65;84.90
72959;BME280;60008;50.826;6.896;2022-10-13T12:57:58;101087.16;;;15.75;84.34
72959;BME280;60008;50.826;6.896;2022-10-13T13:00:43;101087.94;;;15.90;83.72
72959;BME280;60008;50.826;6.896;2022-10-13T13:03:29;101090.06;;;15.94;83.51
72959;BME280;60008;50.826;6.896;2022-10-13T13:14:56;101084.66;;;15.73;84.68
72959;BME280;60008;50.826;6.896;2022-10-13T13:17:42;101086.25;;;15.68;84.94
72959;BME280;60008;50.826;6.896;2022-10-13T13:20:42;101092.13;;;15.63;85.59
72959;BME280;60008;50.826;6.896;2022-10-13T13:23:27;101086.13;;;15.61;86.35
72959;BME280;60008;50.826;6.896;2022-10-13T13:26:19;101082.53;;;15.69;85.94
72959;BME280;60008;50.826;6.896;2022-10-13T13:29:04;101085.94;;;15.77;84.08
72959;BME280;60008;50.826;6.896;2022-10-13T13:31:50;101083.38;;;15.69;87.18
72959;BME280;60008;50.826;6.896;2022-10-13T13:34:35;101088.06;;;15.53;88.11
72959;BME280;60008;50.826;6.896;2022-10-13T13:37:27;101080.41;;;15.49;89.31
72959;BME280;60008;50.826;6.896;2022-10-13T13:40:15;101080.66;;;15.40;89.91
72959;BME280;60008;50.826;6.896;2022-10-13T13:43:00;101085.38;;;15.38;90.66
72959;BME280;60008;50.826;6.896;2022-10-13T13:45:45;101071.81;;;15.39;90.90
72959;BME280;60008;50.826;6.896;2022-10-13T13:48:31;101080.06;;;15.53;91.93
72959;BME280;60008;50.826;6.896;2022-10-13T13:51:16;101077.44;;;15.44;92.24
72959;BME280;60008;50.826;6.896;2022-10-13T13:54:01;101075.88;;;15.35;93.61
72959;BME280;60008;50.826;6.896;2022-10-13T13:56:46;101068.88;;;15.34;93.45
72959;BME280;60008;50.826;6.896;2022-10-13T13:59:31;101067.94;;;15.27;94.74
72959;BME280;60008;50.826;6.896;2022-10-13T14:02:19;101064.25;;;15.28;96.77
72959;BME280;60008;50.826;6.896;2022-10-13T14:05:05;101056.53;;;15.19;95.91
72959;BME280;60008;50.826;6.896;2022-10-13T14:07:53;101063.78;;;15.10;96.21
72959;BME280;60008;50.826;6.896;2022-10-13T14:10:39;101063.94;;;15.09;98.78
72959;BME280;60008;50.826;6.896;2022-10-13T14:13:25;101061.28;;;15.09;97.38
72959;BME280;60008;50.826;6.896;2022-10-13T14:16:15;101055.94;;;15.09;97.64
72959;BME280;60008;50.826;6.896;2022-10-13T14:19:00;101051.53;;;15.01;100.00
72959;BME280;60008;50.826;6.896;2022-10-13T14:21:45;101052.16;;;14.88;100.00
72959;BME280;60008;50.826;6.896;2022-10-13T14:24:30;101045.06;;;14.81;100.00
72959;BME280;60008;50.826;6.896;2022-10-13T14:27:16;101037.13;;;14.73;100.00
72959;BME280;60008;50.826;6.896;2022-10-13T14:30:02;101038.66;;;14.67;100.00
72959;BME280;60008;50.826;6.896;2022-10-13T14:32:47;101037.84;;;14.67;100.00
72959;BME280;60008;50.826;6.896;2022-10-13T14:35:32;101036.06;;;14.59;100.00
72959;BME280;60008;50.826;6.896;2022-10-13T14:38:17;101025.22;;;14.61;100.00
72959;BME280;60008;50.826;6.896;2022-10-13T14:41:04;101024.00;;;14.63;100.00
72959;BME280;60008;50.826;6.896;2022-10-13T14:43:53;101031.88;;;14.57;100.00
72959;BME280;60008;50.826;6.896;2022-10-13T14:46:39;101026.09;;;14.53;100.00
72959;BME280;60008;50.826;6.896;2022-10-13T14:49:25;101026.28;;;14.52;100.00
72959;BME280;60008;50.826;6.896;2022-10-13T14:52:10;101022.97;;;14.50;100.00
72959;BME280;60008;50.826;6.896;2022-10-13T14:54:55;101015.25;;;14.55;100.00
72959;BME280;60008;50.826;6.896;2022-10-13T14:57:40;101015.59;;;14.52;100.00
72959;BME280;60008;50.826;6.896;2022-10-13T15:00:25;101016.91;;;14.56;100.00
72959;BME280;60008;50.826;6.896;2022-10-13T15:03:10;101017.28;;;14.53;100.00
72959;BME280;60008;50.826;6.896;2022-10-13T15:05:55;101010.19;;;14.60;100.00
72959;BME280;60008;50.826;6.896;2022-10-13T15:08:41;101017.50;;;14.66;100.00
72959;BME280;60008;50.826;6.896;2022-10-13T15:11:27;101012.34;;;14.64;100.00
72959;BME280;60008;50.826;6.896;2022-10-13T15:14:13;101012.69;;;14.61;100.00
72959;BME280;60008;50.826;6.896;2022-10-13T15:16:58;101005.81;;;14.67;100.00
72959;BME280;60008;50.826;6.896;2022-10-13T15:19:43;101005.16;;;14.65;100.00
72959;BME280;60008;50.826;6.896;2022-10-13T15:22:28;101009.84;;;14.63;100.00
72959;BME280;60008;50.826;6.896;2022-10-13T15:25:13;101007.59;;;14.52;100.00
72959;BME280;60008;50.826;6.896;2022-10-13T15:27:58;101007.94;;;14.49;100.00
72959;BME280;60008;50.826;6.896;2022-10-13T15:30:44;101013.34;;;14.41;100.00
72959;BME280;60008;50.826;6.896;2022-10-13T15:33:29;101001.22;;;14.38;100.00
72959;BME280;60008;50.826;6.896;2022-10-13T15:36:14;101009.22;;;14.38;100.00